sensor_id;sensor_type;location;lat;lon;timestamp;pressure;altitude;pressure_sealevel;temperature;humidity
64064;BME280;50314;50.618;10.642;2023-02-27T00:01:55;97321.63;;;17.02;20.11
64064;BME280;50314;50.618;10.642;2023-02-27T00:04:21;97326.38;;;16.99;20.10
64064;BME280;50314;50.618;10.642;2023-02-27T00:06:46;97333.66;;;16.97;20.01
64064;BME280;50314;50.618;10.642;2023-02-27T00:09:12;97341.63;;;16.97;19.97
64064;BME280;50314;50.618;10.642;2023-02-27T00:11:37;97335.59;;;16.95;19.93
64064;BME280;50314;50.618;10.642;2023-02-27T00:14:03;97349.72;;;16.95;20.09
64064;BME280;50314;50.618;10.642;2023-02-27T00:16:28;97350.88;;;16.93;20.22
64064;BME280;50314;50.618;10.642;2023-02-27T00:18:54;97344.00;;;16.90;20.07
64064;BME280;50314;50.618;10.642;2023-02-27T00:21:21;97340.63;;;16.88;20.02
64064;BME280;50314;50.618;10.642;2023-02-27T00:23:47;97338.13;;;16.86;20.13
64064;BME280;50314;50.618;10.642;2023-02-27T00:26:12;97333.06;;;16.83;20.17
64064;BME280;50314;50.618;10.642;2023-02-27T00:28:38;97343.00;;;16.81;20.07
64064;BME280;50314;50.618;10.642;2023-02-27T00:31:03;97348.31;;;16.81;20.13
64064;BME280;50314;50.618;10.642;2023-02-27T00:33:29;97344.94;;;16.79;20.02
64064;BME280;50314;50.618;10.642;2023-02-27T00:35:59;97345.19;;;16.76;20.14
64064;BME280;50314;50.618;10.642;2023-02-27T00:38:25;97344.47;;;16.74;20.20
64064;BME280;50314;50.618;10.642;2023-02-27T00:40:51;97351.78;;;16.72;20.25
64064;BME280;50314;50.618;10.642;2023-02-27T00:43:16;97350.34;;;16.68;20.27
64064;BME280;50314;50.618;10.642;2023-02-27T00:45:42;97354.97;;;16.66;20.36
64064;BME280;50314;50.618;10.642;2023-02-27T00:48:07;97351.59;;;16.64;20.24
64064;BME280;50314;50.618;10.642;2023-02-27T00:50:33;97348.09;;;16.63;20.23
64064;BME280;50314;50.618;10.642;2023-02-27T00:52:58;97343.88;;;16.61;20.21
64064;BME280;50314;50.618;10.642;2023-02-27T00:55:23;97347.69;;;16.58;20.25
64064;BME280;50314;50.618;10.642;2023-02-27T00:57:49;97347.81;;;16.57;20.22
64064;BME280;50314;50.618;10.642;2023-02-27T01:00:15;97344.44;;;16.55;20.15
64064;BME280;50314;50.618;10.642;2023-02-27T01:02:40;97356.03;;;16.54;20.34
64064;BME280;50314;50.618;10.642;2023-02-27T01:05:06;97357.31;;;16.50;20.28
64064;BME280;50314;50.618;10.642;2023-02-27T01:07:32;97355.63;;;16.49;20.34
64064;BME280;50314;50.618;10.642;2023-02-27T01:09:57;97350.56;;;16.46;20.28
64064;BME280;50314;50.618;10.642;2023-02-27T01:12:23;97348.88;;;16.44;20.28
64064;BME280;50314;50.618;10.642;2023-02-27T01:14:48;97349.84;;;16.43;20.40
64064;BME280;50314;50.618;10.642;2023-02-27T01:17:14;97353.75;;;16.39;20.49
64064;BME280;50314;50.618;10.642;2023-02-27T01:19:39;97346.06;;;16.36;20.48
64064;BME280;50314;50.618;10.642;2023-02-27T01:22:05;97347.16;;;16.34;20.51
64064;BME280;50314;50.618;10.642;2023-02-27T01:24:31;97346.31;;;16.33;20.42
64064;BME280;50314;50.618;10.642;2023-02-27T01:26:57;97338.59;;;16.30;20.57
64064;BME280;50314;50.618;10.642;2023-02-27T01:29:23;97345.91;;;16.28;20.45
64064;BME280;50314;50.618;10.642;2023-02-27T01:31:48;97343.50;;;16.25;20.44
64064;BME280;50314;50.618;10.642;2023-02-27T01:34:14;97344.59;;;16.23;20.42
64064;BME280;50314;50.618;10.642;2023-02-27T01:36:39;97346.53;;;16.20;20.44
64064;BME280;50314;50.618;10.642;2023-02-27T01:39:05;97346.81;;;16.17;20.56
64064;BME280;50314;50.618;10.642;2023-02-27T01:41:30;97346.81;;;16.17;20.54
64064;BME280;50314;50.618;10.642;2023-02-27T01:44:00;97344.28;;;16.16;20.61
64064;BME280;50314;50.618;10.642;2023-02-27T01:46:27;97342.88;;;16.12;20.52
64064;BME280;50314;50.618;10.642;2023-02-27T01:48:53;97343.63;;;16.03;20.83
64064;BME280;50314;50.618;10.642;2023-02-27T01:51:24;97350.38;;;16.07;20.63
64064;BME280;50314;50.618;10.642;2023-02-27T01:53:52;97347.84;;;16.05;20.57
64064;BME280;50314;50.618;10.642;2023-02-27T01:56:20;97346.19;;;16.04;20.49
64064;BME280;50314;50.618;10.642;2023-02-27T01:58:48;97343.06;;;15.99;20.41
64064;BME280;50314;50.618;10.642;2023-02-27T02:01:14;97350.00;;;15.90;20.82
64064;BME280;50314;50.618;10.642;2023-02-27T02:04:13;97351.13;;;15.88;20.59
64064;BME280;50314;50.618;10.642;2023-02-27T02:06:45;97355.59;;;15.87;20.52
64064;BME280;50314;50.618;10.642;2023-02-27T02:09:13;97354.47;;;15.90;20.90
64064;BME280;50314;50.618;10.642;2023-02-27T02:11:40;97358.25;;;15.87;20.71
64064;BME280;50314;50.618;10.642;2023-02-27T02:14:06;97350.66;;;15.83;20.70
64064;BME280;50314;50.618;10.642;2023-02-27T02:33:33;97347.28;;;15.60;20.85
64064;BME280;50314;50.618;10.642;2023-02-27T02:42:02;97355.06;;;15.52;21.02
64064;BME280;50314;50.618;10.642;2023-02-27T02:45:20;97350.84;;;15.49;20.89
64064;BME280;50314;50.618;10.642;2023-02-27T02:48:00;97351.44;;;15.53;20.79
64064;BME280;50314;50.618;10.642;2023-02-27T02:53:26;97356.53;;;15.44;21.05
64064;BME280;50314;50.618;10.642;2023-02-27T03:01:32;97357.84;;;15.39;21.15
64064;BME280;50314;50.618;10.642;2023-02-27T03:04:12;97360.66;;;15.37;20.88
64064;BME280;50314;50.618;10.642;2023-02-27T03:06:46;97363.16;;;15.39;21.09
64064;BME280;50314;50.618;10.642;2023-02-27T03:09:32;97364.41;;;15.35;20.86
64064;BME280;50314;50.618;10.642;2023-02-27T03:12:01;97365.97;;;15.37;20.96
64064;BME280;50314;50.618;10.642;2023-02-27T03:14:33;97362.59;;;15.35;20.91
64064;BME280;50314;50.618;10.642;2023-02-27T03:17:04;97363.81;;;15.31;20.89
64064;BME280;50314;50.618;10.642;2023-02-27T03:19:43;97356.09;;;15.28;21.21
64064;BME280;50314;50.618;10.642;2023-02-27T03:22:15;97358.75;;;15.28;20.87
64064;BME280;50314;50.618;10.642;2023-02-27T03:24:46;97360.44;;;15.29;20.92
64064;BME280;50314;50.618;10.642;2023-02-27T03:27:15;97365.63;;;15.31;21.14
64064;BME280;50314;50.618;10.642;2023-02-27T03:32:27;97369.38;;;15.28;21.02
64064;BME280;50314;50.618;10.642;2023-02-27T03:34:55;97366.00;;;15.26;21.11
64064;BME280;50314;50.618;10.642;2023-02-27T03:37:31;97368.19;;;15.21;21.14
64064;BME280;50314;50.618;10.642;2023-02-27T03:42:52;97369.28;;;15.18;20.88
64064;BME280;50314;50.618;10.642;2023-02-27T03:45:44;97367.25;;;15.11;21.20
64064;BME280;50314;50.618;10.642;2023-02-27T03:48:15;97368.09;;;15.11;21.30
64064;BME280;50314;50.618;10.642;2023-02-27T03:50:41;97374.25;;;15.12;21.19
64064;BME280;50314;50.618;10.642;2023-02-27T03:56:19;97375.59;;;15.06;21.34
64064;BME280;50314;50.618;10.642;2023-02-27T03:58:46;97370.28;;;15.06;21.03
64064;BME280;50314;50.618;10.642;2023-02-27T04:01:11;97374.03;;;15.03;21.11
64064;BME280;50314;50.618;10.642;2023-02-27T04:03:45;97376.22;;;14.98;21.14
64064;BME280;50314;50.618;10.642;2023-02-27T04:06:12;97382.25;;;15.00;21.11
64064;BME280;50314;50.618;10.642;2023-02-27T04:09:08;97378.28;;;14.95;21.18
64064;BME280;50314;50.618;10.642;2023-02-27T04:11:52;97379.50;;;14.91;21.33
64064;BME280;50314;50.618;10.642;2023-02-27T04:18:01;97386.84;;;14.87;21.18
64064;BME280;50314;50.618;10.642;2023-02-27T04:20:37;97392.66;;;14.81;21.22
64064;BME280;50314;50.618;10.642;2023-02-27T04:25:59;97399.53;;;14.84;21.38
64064;BME280;50314;50.618;10.642;2023-02-27T04:28:44;97393.63;;;14.80;21.45
64064;BME280;50314;50.618;10.642;2023-02-27T04:34:00;97402.78;;;14.76;21.26
64064;BME280;50314;50.618;10.642;2023-02-27T04:36:34;97411.59;;;14.76;21.58
64064;BME280;50314;50.618;10.642;2023-02-27T04:39:06;97409.63;;;14.78;21.55
64064;BME280;50314;50.618;10.642;2023-02-27T04:41:53;97403.88;;;14.73;21.34
64064;BME280;50314;50.618;10.642;2023-02-27T04:44:21;97399.28;;;14.75;21.34
64064;BME280;50314;50.618;10.642;2023-02-27T04:46:50;97407.22;;;14.75;21.48
64064;BME280;50314;50.618;10.642;2023-02-27T04:49:24;97407.59;;;14.71;21.30
64064;BME280;50314;50.618;10.642;2023-02-27T04:51:59;97409.63;;;14.67;21.31
64064;BME280;50314;50.618;10.642;2023-02-27T04:54:34;97407.84;;;14.68;21.20
64064;BME280;50314;50.618;10.642;2023-02-27T04:57:06;97412.28;;;14.67;21.39
64064;BME280;50314;50.618;10.642;2023-02-27T04:59:37;97414.09;;;14.67;21.29
64064;BME280;50314;50.618;10.642;2023-02-27T05:02:11;97425.63;;;14.66;21.32
64064;BME280;50314;50.618;10.642;2023-02-27T05:04:41;97429.16;;;14.66;21.27
64064;BME280;50314;50.618;10.642;2023-02-27T05:07:09;97432.91;;;14.64;21.32
64064;BME280;50314;50.618;10.642;2023-02-27T05:09:51;97434.94;;;14.60;21.22
64064;BME280;50314;50.618;10.642;2023-02-27T05:12:24;97435.03;;;14.58;21.25
64064;BME280;50314;50.618;10.642;2023-02-27T05:15:10;97433.84;;;14.51;21.48
64064;BME280;50314;50.618;10.642;2023-02-27T05:17:46;97433.13;;;14.49;21.27
64064;BME280;50314;50.618;10.642;2023-02-27T05:20:14;97433.00;;;14.51;21.66
64064;BME280;50314;50.618;10.642;2023-02-27T05:22:55;97442.78;;;14.50;21.20
64064;BME280;50314;50.618;10.642;2023-02-27T05:25:29;97442.03;;;14.48;21.57
64064;BME280;50314;50.618;10.642;2023-02-27T05:28:14;97437.69;;;14.47;21.48
64064;BME280;50314;50.618;10.642;2023-02-27T05:31:01;97437.94;;;14.44;21.73
64064;BME280;50314;50.618;10.642;2023-02-27T05:38:33;97445.88;;;14.44;21.75
64064;BME280;50314;50.618;10.642;2023-02-27T05:41:31;97445.53;;;14.38;21.77
64064;BME280;50314;50.618;10.642;2023-02-27T05:44:09;97443.72;;;14.38;21.82
64064;BME280;50314;50.618;10.642;2023-02-27T05:46:42;97446.25;;;14.40;21.49
64064;BME280;50314;50.618;10.642;2023-02-27T05:49:22;97448.19;;;14.38;21.67
64064;BME280;50314;50.618;10.642;2023-02-27T05:51:50;97444.69;;;14.37;21.67
64064;BME280;50314;50.618;10.642;2023-02-27T05:54:42;97457.44;;;14.32;21.65
64064;BME280;50314;50.618;10.642;2023-02-27T05:57:15;97456.34;;;14.34;21.59
64064;BME280;50314;50.618;10.642;2023-02-27T06:02:49;97455.41;;;14.36;21.56
64064;BME280;50314;50.618;10.642;2023-02-27T06:05:16;97448.41;;;14.34;21.83
64064;BME280;50314;50.618;10.642;2023-02-27T06:07:42;97458.16;;;14.34;21.48
64064;BME280;50314;50.618;10.642;2023-02-27T06:10:11;97471.56;;;14.32;21.68
64064;BME280;50314;50.618;10.642;2023-02-27T06:12:38;97464.44;;;14.33;21.82
64064;BME280;50314;50.618;10.642;2023-02-27T06:15:03;97467.09;;;14.33;21.88
64064;BME280;50314;50.618;10.642;2023-02-27T06:17:29;97469.59;;;14.34;21.62
64064;BME280;50314;50.618;10.642;2023-02-27T06:19:54;97461.66;;;14.34;21.59
64064;BME280;50314;50.618;10.642;2023-02-27T06:22:20;97466.03;;;14.36;21.51
64064;BME280;50314;50.618;10.642;2023-02-27T06:24:45;97474.06;;;14.34;21.45
64064;BME280;50314;50.618;10.642;2023-02-27T06:27:11;97475.75;;;14.35;21.72
64064;BME280;50314;50.618;10.642;2023-02-27T06:29:36;97478.41;;;14.35;21.69
64064;BME280;50314;50.618;10.642;2023-02-27T06:32:01;97476.72;;;14.34;21.77
64064;BME280;50314;50.618;10.642;2023-02-27T06:34:27;97464.31;;;14.34;21.78
64064;BME280;50314;50.618;10.642;2023-02-27T06:36:53;97466.03;;;14.36;21.92
64064;BME280;50314;50.618;10.642;2023-02-27T06:39:18;97469.59;;;14.34;21.68
64064;BME280;50314;50.618;10.642;2023-02-27T06:41:43;97482.03;;;14.34;21.95
64064;BME280;50314;50.618;10.642;2023-02-27T06:44:09;97479.38;;;14.34;21.63
64064;BME280;50314;50.618;10.642;2023-02-27T06:46:34;97479.38;;;14.34;21.71
64064;BME280;50314;50.618;10.642;2023-02-27T06:49:00;97491.66;;;14.35;21.64
64064;BME280;50314;50.618;10.642;2023-02-27T06:51:26;97488.06;;;14.36;21.92
64064;BME280;50314;50.618;10.642;2023-02-27T06:53:51;97472.16;;;14.36;22.10
64064;BME280;50314;50.618;10.642;2023-02-27T06:56:17;97480.81;;;14.38;22.11
64064;BME280;50314;50.618;10.642;2023-02-27T06:58:42;97467.56;;;14.38;22.20
64064;BME280;50314;50.618;10.642;2023-02-27T07:01:08;97466.63;;;14.39;21.88
64064;BME280;50314;50.618;10.642;2023-02-27T07:03:34;97456.72;;;14.41;21.90
64064;BME280;50314;50.618;10.642;2023-02-27T07:05:59;97457.69;;;14.40;21.84
64064;BME280;50314;50.618;10.642;2023-02-27T07:08:26;97472.63;;;14.41;21.69
64064;BME280;50314;50.618;10.642;2023-02-27T07:10:52;97455.88;;;14.41;21.65
64064;BME280;50314;50.618;10.642;2023-02-27T07:13:17;97465.53;;;14.42;21.86
64064;BME280;50314;50.618;10.642;2023-02-27T07:15:43;97464.44;;;14.44;22.02
64064;BME280;50314;50.618;10.642;2023-02-27T07:18:09;97476.72;;;14.45;22.13
64064;BME280;50314;50.618;10.642;2023-02-27T07:20:35;97465.28;;;14.45;22.05
64064;BME280;50314;50.618;10.642;2023-02-27T07:23:01;97468.66;;;14.47;22.05
64064;BME280;50314;50.618;10.642;2023-02-27T07:25:27;97473.13;;;14.46;21.97
64064;BME280;50314;50.618;10.642;2023-02-27T07:27:52;97481.91;;;14.47;21.80
64064;BME280;50314;50.618;10.642;2023-02-27T07:30:18;97476.72;;;14.45;22.06
64064;BME280;50314;50.618;10.642;2023-02-27T07:32:43;97485.53;;;14.46;22.19
64064;BME280;50314;50.618;10.642;2023-02-27T07:35:10;97469.50;;;14.47;22.09
64064;BME280;50314;50.618;10.642;2023-02-27T07:37:36;97479.88;;;14.50;22.04
64064;BME280;50314;50.618;10.642;2023-02-27T07:40:02;97475.41;;;14.51;22.16
64064;BME280;50314;50.618;10.642;2023-02-27T07:42:28;97477.09;;;14.52;22.02
64064;BME280;50314;50.618;10.642;2023-02-27T07:44:53;97476.25;;;14.51;22.28
64064;BME280;50314;50.618;10.642;2023-02-27T07:47:19;97489.63;;;14.50;22.28
64064;BME280;50314;50.618;10.642;2023-02-27T07:49:44;97493.97;;;14.51;22.15
64064;BME280;50314;50.618;10.642;2023-02-27T07:52:10;97481.56;;;14.51;22.04
64064;BME280;50314;50.618;10.642;2023-02-27T07:54:35;97487.59;;;14.53;21.81
64064;BME280;50314;50.618;10.642;2023-02-27T07:57:04;97487.47;;;14.55;22.17
64064;BME280;50314;50.618;10.642;2023-02-27T07:59:30;97496.16;;;14.57;22.28
64064;BME280;50314;50.618;10.642;2023-02-27T08:01:55;97496.88;;;14.59;22.27
64064;BME280;50314;50.618;10.642;2023-02-27T08:04:20;97502.06;;;14.61;21.83
64064;BME280;50314;50.618;10.642;2023-02-27T08:06:46;97496.63;;;14.62;22.17
64064;BME280;50314;50.618;10.642;2023-02-27T08:09:11;97513.25;;;14.64;22.18
64064;BME280;50314;50.618;10.642;2023-02-27T08:11:37;97512.28;;;14.65;22.00
64064;BME280;50314;50.618;10.642;2023-02-27T08:14:02;97513.91;;;14.68;21.82
64064;BME280;50314;50.618;10.642;2023-02-27T08:16:29;97505.84;;;14.69;22.05
64064;BME280;50314;50.618;10.642;2023-02-27T08:18:55;97514.75;;;14.68;22.14
64064;BME280;50314;50.618;10.642;2023-02-27T08:21:20;97513.66;;;14.71;21.99
64064;BME280;50314;50.618;10.642;2023-02-27T08:23:46;97514.41;;;14.73;22.15
64064;BME280;50314;50.618;10.642;2023-02-27T08:26:11;97507.28;;;14.73;21.90
64064;BME280;50314;50.618;10.642;2023-02-27T08:28:37;97525.72;;;14.75;22.39
64064;BME280;50314;50.618;10.642;2023-02-27T08:31:03;97528.38;;;14.75;22.23
64064;BME280;50314;50.618;10.642;2023-02-27T08:33:28;97531.03;;;14.75;22.33
64064;BME280;50314;50.618;10.642;2023-02-27T08:35:54;97525.63;;;14.76;22.22
64064;BME280;50314;50.618;10.642;2023-02-27T08:38:20;97529.94;;;14.77;22.11
64064;BME280;50314;50.618;10.642;2023-02-27T08:40:45;97528.25;;;14.76;22.33
64064;BME280;50314;50.618;10.642;2023-02-27T08:43:11;97533.44;;;14.78;22.08
64064;BME280;50314;50.618;10.642;2023-02-27T08:45:36;97536.94;;;14.78;21.93
64064;BME280;50314;50.618;10.642;2023-02-27T08:48:02;97530.69;;;14.79;21.70
64064;BME280;50314;50.618;10.642;2023-02-27T08:50:27;97534.16;;;14.80;21.87
64064;BME280;50314;50.618;10.642;2023-02-27T08:52:53;97542.84;;;14.82;21.64
64064;BME280;50314;50.618;10.642;2023-02-27T08:55:18;97539.25;;;14.83;21.92
64064;BME280;50314;50.618;10.642;2023-02-27T08:57:44;97537.28;;;14.85;21.59
64064;BME280;50314;50.618;10.642;2023-02-27T09:00:10;97528.25;;;14.88;20.84
64064;BME280;50314;50.618;10.642;2023-02-27T09:02:38;97544.16;;;14.88;20.20
64064;BME280;50314;50.618;10.642;2023-02-27T09:05:04;97541.66;;;14.86;19.82
64064;BME280;50314;50.618;10.642;2023-02-27T09:07:30;97539.09;;;14.85;20.02
64064;BME280;50314;50.618;10.642;2023-02-27T09:09:55;97532.00;;;14.85;19.81
64064;BME280;50314;50.618;10.642;2023-02-27T09:12:21;97530.91;;;14.88;19.90
64064;BME280;50314;50.618;10.642;2023-02-27T09:14:46;97541.38;;;14.89;20.26
64064;BME280;50314;50.618;10.642;2023-02-27T09:17:11;97535.97;;;14.91;20.06
64064;BME280;50314;50.618;10.642;2023-02-27T09:19:37;97541.03;;;14.94;20.12
64064;BME280;50314;50.618;10.642;2023-02-27T09:22:02;97542.47;;;14.98;20.28
64064;BME280;50314;50.618;10.642;2023-02-27T09:24:28;97545.75;;;15.01;20.01
64064;BME280;50314;50.618;10.642;2023-02-27T09:26:53;97544.53;;;15.06;20.41
64064;BME280;50314;50.618;10.642;2023-02-27T09:29:19;97553.81;;;15.11;20.24
64064;BME280;50314;50.618;10.642;2023-02-27T09:31:45;97545.47;;;15.16;20.25
64064;BME280;50314;50.618;10.642;2023-02-27T09:34:11;97556.47;;;15.22;20.53
64064;BME280;50314;50.618;10.642;2023-02-27T09:36:36;97553.47;;;15.27;20.48
64064;BME280;50314;50.618;10.642;2023-02-27T09:39:02;97556.56;;;15.32;20.54
64064;BME280;50314;50.618;10.642;2023-02-27T09:44:35;97553.09;;;15.43;20.45
64064;BME280;50314;50.618;10.642;2023-02-27T09:47:02;97559.47;;;15.52;20.68
64064;BME280;50314;50.618;10.642;2023-02-27T09:49:35;97558.00;;;15.59;20.72
64064;BME280;50314;50.618;10.642;2023-02-27T09:52:05;97556.31;;;15.69;20.76
64064;BME280;50314;50.618;10.642;2023-02-27T09:54:32;97570.66;;;15.78;20.67
64064;BME280;50314;50.618;10.642;2023-02-27T09:57:01;97564.72;;;15.85;20.69
64064;BME280;50314;50.618;10.642;2023-02-27T09:59:58;97565.88;;;15.92;20.62
64064;BME280;50314;50.618;10.642;2023-02-27T10:04:59;97570.91;;;16.18;20.56
64064;BME280;50314;50.618;10.642;2023-02-27T10:07:44;97566.50;;;16.28;20.73
64064;BME280;50314;50.618;10.642;2023-02-27T10:10:36;97580.25;;;16.33;20.77
64064;BME280;50314;50.618;10.642;2023-02-27T10:15:56;97575.34;;;16.50;20.81
64064;BME280;50314;50.618;10.642;2023-02-27T10:18:26;97582.66;;;16.57;20.67
64064;BME280;50314;50.618;10.642;2023-02-27T10:20:56;97569.69;;;16.64;20.72
64064;BME280;50314;50.618;10.642;2023-02-27T10:23:43;97581.03;;;16.66;20.66
64064;BME280;50314;50.618;10.642;2023-02-27T10:26:18;97573.97;;;16.76;20.67
64064;BME280;50314;50.618;10.642;2023-02-27T10:28:44;97578.66;;;16.84;20.07
64064;BME280;50314;50.618;10.642;2023-02-27T10:31:22;97580.63;;;16.82;18.47
64064;BME280;50314;50.618;10.642;2023-02-27T10:33:49;97580.47;;;16.83;19.05
64064;BME280;50314;50.618;10.642;2023-02-27T10:36:17;97574.06;;;16.86;18.89
64064;BME280;50314;50.618;10.642;2023-02-27T10:38:48;97577.28;;;16.89;18.92
64064;BME280;50314;50.618;10.642;2023-02-27T10:41:17;97575.91;;;16.95;18.96
64064;BME280;50314;50.618;10.642;2023-02-27T10:43:44;97564.88;;;17.00;19.57
64064;BME280;50314;50.618;10.642;2023-02-27T10:46:22;97558.16;;;17.05;19.40
64064;BME280;50314;50.618;10.642;2023-02-27T10:48:49;97569.44;;;17.19;19.40
64064;BME280;50314;50.618;10.642;2023-02-27T10:53:48;97563.50;;;17.36;19.75
64064;BME280;50314;50.618;10.642;2023-02-27T10:56:21;97561.13;;;17.43;19.62
64064;BME280;50314;50.618;10.642;2023-02-27T10:59:01;97564.97;;;17.50;19.87
64064;BME280;50314;50.618;10.642;2023-02-27T11:01:43;97559.78;;;17.58;20.00
64064;BME280;50314;50.618;10.642;2023-02-27T11:04:11;97560.22;;;17.73;19.80
64064;BME280;50314;50.618;10.642;2023-02-27T11:06:36;97555.06;;;17.81;19.84
64064;BME280;50314;50.618;10.642;2023-02-27T11:09:32;97550.41;;;17.83;20.13
64064;BME280;50314;50.618;10.642;2023-02-27T11:12:17;97555.75;;;17.93;20.20
64064;BME280;50314;50.618;10.642;2023-02-27T11:14:53;97554.38;;;17.98;19.96
64064;BME280;50314;50.618;10.642;2023-02-27T11:17:22;97547.94;;;18.11;20.06
64064;BME280;50314;50.618;10.642;2023-02-27T11:19:48;97535.59;;;18.19;20.27
64064;BME280;50314;50.618;10.642;2023-02-27T11:22:22;97544.88;;;18.25;19.86
64064;BME280;50314;50.618;10.642;2023-02-27T11:24:50;97547.38;;;18.36;20.31
64064;BME280;50314;50.618;10.642;2023-02-27T11:27:23;97541.19;;;18.36;20.18
64064;BME280;50314;50.618;10.642;2023-02-27T11:32:22;97534.56;;;18.59;20.48
64064;BME280;50314;50.618;10.642;2023-02-27T11:34:50;97535.53;;;18.68;20.31
64064;BME280;50314;50.618;10.642;2023-02-27T11:37:29;97536.22;;;18.70;20.33
64064;BME280;50314;50.618;10.642;2023-02-27T11:42:31;97540.00;;;18.87;20.00
64064;BME280;50314;50.618;10.642;2023-02-27T11:45:04;97521.03;;;18.90;20.15
64064;BME280;50314;50.618;10.642;2023-02-27T11:47:33;97523.41;;;18.93;20.26
64064;BME280;50314;50.618;10.642;2023-02-27T11:50:04;97514.28;;;18.95;20.22
64064;BME280;50314;50.618;10.642;2023-02-27T11:55:14;97526.88;;;19.03;20.12
64064;BME280;50314;50.618;10.642;2023-02-27T11:57:44;97518.28;;;19.09;20.03
64064;BME280;50314;50.618;10.642;2023-02-27T12:02:54;97527.94;;;19.20;20.00
64064;BME280;50314;50.618;10.642;2023-02-27T12:05:30;97523.41;;;19.20;20.10
64064;BME280;50314;50.618;10.642;2023-02-27T12:08:03;97519.63;;;19.23;20.30
64064;BME280;50314;50.618;10.642;2023-02-27T12:11:04;97525.41;;;19.18;19.97
64064;BME280;50314;50.618;10.642;2023-02-27T12:13:23;97525.56;;;19.17;20.29
64064;BME280;50314;50.618;10.642;2023-02-27T12:18:38;97530.84;;;19.27;19.90
64064;BME280;50314;50.618;10.642;2023-02-27T12:21:09;97525.75;;;19.33;20.14
64064;BME280;50314;50.618;10.642;2023-02-27T12:26:32;97524.09;;;19.32;20.34
64064;BME280;50314;50.618;10.642;2023-02-27T12:32:38;97529.41;;;19.32;19.71
64064;BME280;50314;50.618;10.642;2023-02-27T12:35:19;97523.91;;;19.34;19.84
64064;BME280;50314;50.618;10.642;2023-02-27T12:37:46;97526.13;;;19.38;19.87
64064;BME280;50314;50.618;10.642;2023-02-27T12:40:16;97532.47;;;19.37;19.59
64064;BME280;50314;50.618;10.642;2023-02-27T12:43:04;97533.59;;;19.35;19.95
64064;BME280;50314;50.618;10.642;2023-02-27T12:48:45;97531.38;;;19.30;19.69
64064;BME280;50314;50.618;10.642;2023-02-27T13:05:13;97533.97;;;19.22;19.54
64064;BME280;50314;50.618;10.642;2023-02-27T13:07:51;97532.13;;;19.22;19.56
64064;BME280;50314;50.618;10.642;2023-02-27T13:10:25;97529.47;;;19.22;19.72
64064;BME280;50314;50.618;10.642;2023-02-27T13:13:08;97525.13;;;19.21;19.43
64064;BME280;50314;50.618;10.642;2023-02-27T13:15:48;97522.13;;;19.24;19.60
64064;BME280;50314;50.618;10.642;2023-02-27T13:18:39;97526.78;;;19.22;19.58
64064;BME280;50314;50.618;10.642;2023-02-27T13:21:11;97515.13;;;19.23;19.50
64064;BME280;50314;50.618;10.642;2023-02-27T13:26:26;97518.50;;;19.25;19.59
64064;BME280;50314;50.618;10.642;2023-02-27T13:28:53;97524.56;;;19.18;19.78
64064;BME280;50314;50.618;10.642;2023-02-27T13:31:35;97526.09;;;19.20;19.45
64064;BME280;50314;50.618;10.642;2023-02-27T13:37:04;97528.63;;;19.22;19.49
64064;BME280;50314;50.618;10.642;2023-02-27T13:42:01;97523.28;;;19.22;19.44
64064;BME280;50314;50.618;10.642;2023-02-27T13:44:39;97524.72;;;19.16;19.33
64064;BME280;50314;50.618;10.642;2023-02-27T13:50:00;97525.00;;;19.13;19.58
64064;BME280;50314;50.618;10.642;2023-02-27T13:52:34;97530.50;;;19.12;19.64
64064;BME280;50314;50.618;10.642;2023-02-27T13:55:01;97534.69;;;19.14;19.61
64064;BME280;50314;50.618;10.642;2023-02-27T13:57:34;97530.63;;;19.10;19.24
64064;BME280;50314;50.618;10.642;2023-02-27T14:00:05;97538.66;;;19.10;19.39
64064;BME280;50314;50.618;10.642;2023-02-27T14:02:49;97539.78;;;19.08;19.50
64064;BME280;50314;50.618;10.642;2023-02-27T14:05:16;97532.63;;;19.08;19.62
64064;BME280;50314;50.618;10.642;2023-02-27T14:08:06;97542.19;;;19.01;19.46
64064;BME280;50314;50.618;10.642;2023-02-27T14:10:32;97532.91;;;19.05;19.47
64064;BME280;50314;50.618;10.642;2023-02-27T14:13:00;97546.56;;;19.02;19.65
64064;BME280;50314;50.618;10.642;2023-02-27T14:17:58;97534.34;;;18.99;19.78
64064;BME280;50314;50.618;10.642;2023-02-27T14:25:47;97534.38;;;18.90;19.43
64064;BME280;50314;50.618;10.642;2023-02-27T14:28:22;97546.16;;;18.87;19.33
64064;BME280;50314;50.618;10.642;2023-02-27T14:31:06;97537.63;;;18.84;19.44
64064;BME280;50314;50.618;10.642;2023-02-27T14:33:45;97538.63;;;18.83;19.42
64064;BME280;50314;50.618;10.642;2023-02-27T14:36:53;97540.72;;;18.79;19.80
64064;BME280;50314;50.618;10.642;2023-02-27T14:39:37;97548.28;;;18.74;19.91
64064;BME280;50314;50.618;10.642;2023-02-27T14:44:47;97545.06;;;18.70;19.66
64064;BME280;50314;50.618;10.642;2023-02-27T14:47:30;97529.94;;;18.61;19.92
64064;BME280;50314;50.618;10.642;2023-02-27T14:49:57;97541.16;;;18.65;19.79
64064;BME280;50314;50.618;10.642;2023-02-27T14:52:30;97535.41;;;18.60;20.06
64064;BME280;50314;50.618;10.642;2023-02-27T14:55:30;97536.13;;;18.52;20.05
64064;BME280;50314;50.618;10.642;2023-02-27T15:00:59;97544.97;;;18.52;20.09
64064;BME280;50314;50.618;10.642;2023-02-27T15:03:34;97537.53;;;18.46;19.88
64064;BME280;50314;50.618;10.642;2023-02-27T15:06:05;97537.25;;;18.49;19.85
64064;BME280;50314;50.618;10.642;2023-02-27T15:08:38;97540.06;;;18.48;19.94
64064;BME280;50314;50.618;10.642;2023-02-27T15:11:05;97536.69;;;18.46;19.71
64064;BME280;50314;50.618;10.642;2023-02-27T15:13:35;97541.31;;;18.44;19.51
64064;BME280;50314;50.618;10.642;2023-02-27T15:21:30;97535.16;;;18.34;19.95
64064;BME280;50314;50.618;10.642;2023-02-27T15:24:02;97531.81;;;18.31;19.57